sensor_id;sensor_type;location;lat;lon;timestamp;temperature;humidity
54431;DHT22;40342;52.998;5.862;2023-08-06T00:01:50;14.30;99.90
54431;DHT22;40342;52.998;5.862;2023-08-06T00:04:16;14.30;99.90
54431;DHT22;40342;52.998;5.862;2023-08-06T00:06:42;14.30;99.90
54431;DHT22;40342;52.998;5.862;2023-08-06T00:09:07;14.30;99.90
54431;DHT22;40342;52.998;5.862;2023-08-06T00:11:33;14.30;99.90
54431;DHT22;40342;52.998;5.862;2023-08-06T00:13:59;14.30;99.90
54431;DHT22;40342;52.998;5.862;2023-08-06T00:16:25;14.30;99.90
54431;DHT22;40342;52.998;5.862;2023-08-06T00:18:50;14.30;99.90
54431;DHT22;40342;52.998;5.862;2023-08-06T00:21:16;14.30;99.90
54431;DHT22;40342;52.998;5.862;2023-08-06T00:23:41;14.30;99.90
54431;DHT22;40342;52.998;5.862;2023-08-06T00:26:07;14.30;99.90
54431;DHT22;40342;52.998;5.862;2023-08-06T00:28:32;14.30;99.90
54431;DHT22;40342;52.998;5.862;2023-08-06T00:30:58;14.30;99.90
54431;DHT22;40342;52.998;5.862;2023-08-06T00:33:24;14.30;99.90
54431;DHT22;40342;52.998;5.862;2023-08-06T00:35:50;14.30;99.90
54431;DHT22;40342;52.998;5.862;2023-08-06T00:38:16;14.30;99.90
54431;DHT22;40342;52.998;5.862;2023-08-06T00:40:41;14.30;99.90
54431;DHT22;40342;52.998;5.862;2023-08-06T00:43:07;14.40;99.90
54431;DHT22;40342;52.998;5.862;2023-08-06T00:45:35;14.30;99.90
54431;DHT22;40342;52.998;5.862;2023-08-06T00:48:02;14.30;99.90
54431;DHT22;40342;52.998;5.862;2023-08-06T00:50:28;14.30;99.90
54431;DHT22;40342;52.998;5.862;2023-08-06T00:52:54;14.30;99.90
54431;DHT22;40342;52.998;5.862;2023-08-06T00:55:20;14.30;99.90
54431;DHT22;40342;52.998;5.862;2023-08-06T00:57:46;14.30;99.90
54431;DHT22;40342;52.998;5.862;2023-08-06T01:00:12;14.30;99.90
54431;DHT22;40342;52.998;5.862;2023-08-06T01:02:38;14.30;99.90
54431;DHT22;40342;52.998;5.862;2023-08-06T01:05:03;14.30;99.90
54431;DHT22;40342;52.998;5.862;2023-08-06T01:07:56;14.30;99.90
54431;DHT22;40342;52.998;5.862;2023-08-06T01:13:48;14.40;99.90
54431;DHT22;40342;52.998;5.862;2023-08-06T01:16:19;14.30;99.90
54431;DHT22;40342;52.998;5.862;2023-08-06T01:18:47;14.30;99.90
54431;DHT22;40342;52.998;5.862;2023-08-06T01:21:18;14.30;99.90
54431;DHT22;40342;52.998;5.862;2023-08-06T01:23:44;14.30;99.90
54431;DHT22;40342;52.998;5.862;2023-08-06T01:31:38;14.30;99.90
54431;DHT22;40342;52.998;5.862;2023-08-06T01:34:25;14.30;99.90
54431;DHT22;40342;52.998;5.862;2023-08-06T01:36:53;14.30;99.90
54431;DHT22;40342;52.998;5.862;2023-08-06T01:39:18;14.30;99.90
54431;DHT22;40342;52.998;5.862;2023-08-06T01:41:50;14.30;99.90
54431;DHT22;40342;52.998;5.862;2023-08-06T01:44:16;14.30;99.90
54431;DHT22;40342;52.998;5.862;2023-08-06T01:46:42;14.30;99.90
54431;DHT22;40342;52.998;5.862;2023-08-06T01:49:07;14.40;99.90
54431;DHT22;40342;52.998;5.862;2023-08-06T01:51:33;14.40;99.90
54431;DHT22;40342;52.998;5.862;2023-08-06T01:53:58;14.40;99.90
54431;DHT22;40342;52.998;5.862;2023-08-06T01:56:24;14.30;99.90
54431;DHT22;40342;52.998;5.862;2023-08-06T01:58:50;14.30;99.90
54431;DHT22;40342;52.998;5.862;2023-08-06T02:01:15;14.30;99.90
54431;DHT22;40342;52.998;5.862;2023-08-06T02:03:41;14.40;99.90
54431;DHT22;40342;52.998;5.862;2023-08-06T02:06:06;14.40;99.90
54431;DHT22;40342;52.998;5.862;2023-08-06T02:08:32;14.30;99.90
54431;DHT22;40342;52.998;5.862;2023-08-06T02:10:57;14.40;99.90
54431;DHT22;40342;52.998;5.862;2023-08-06T02:13:23;14.40;99.90
54431;DHT22;40342;52.998;5.862;2023-08-06T02:15:49;14.30;99.90
54431;DHT22;40342;52.998;5.862;2023-08-06T02:18:15;14.30;99.90
54431;DHT22;40342;52.998;5.862;2023-08-06T02:20:41;14.30;99.90
54431;DHT22;40342;52.998;5.862;2023-08-06T02:23:07;14.30;99.90
54431;DHT22;40342;52.998;5.862;2023-08-06T02:25:33;14.30;99.90
54431;DHT22;40342;52.998;5.862;2023-08-06T02:27:59;14.30;99.90
54431;DHT22;40342;52.998;5.862;2023-08-06T02:30:24;14.30;99.90
54431;DHT22;40342;52.998;5.862;2023-08-06T02:32:50;14.30;99.90
54431;DHT22;40342;52.998;5.862;2023-08-06T02:35:15;14.30;99.90
54431;DHT22;40342;52.998;5.862;2023-08-06T02:37:41;14.30;99.90
54431;DHT22;40342;52.998;5.862;2023-08-06T02:40:07;14.30;99.90
54431;DHT22;40342;52.998;5.862;2023-08-06T02:42:33;14.30;99.90
54431;DHT22;40342;52.998;5.862;2023-08-06T02:44:58;14.30;99.90
54431;DHT22;40342;52.998;5.862;2023-08-06T02:47:24;14.30;99.90
54431;DHT22;40342;52.998;5.862;2023-08-06T02:49:50;14.30;99.90
54431;DHT22;40342;52.998;5.862;2023-08-06T02:52:15;14.30;99.90
54431;DHT22;40342;52.998;5.862;2023-08-06T02:54:41;14.30;99.90
54431;DHT22;40342;52.998;5.862;2023-08-06T02:57:06;14.30;99.90
54431;DHT22;40342;52.998;5.862;2023-08-06T02:59:33;14.30;99.90
54431;DHT22;40342;52.998;5.862;2023-08-06T03:01:58;14.30;99.90
54431;DHT22;40342;52.998;5.862;2023-08-06T03:04:24;14.30;99.90
54431;DHT22;40342;52.998;5.862;2023-08-06T03:06:50;14.30;99.90
54431;DHT22;40342;52.998;5.862;2023-08-06T03:09:17;14.30;99.90
54431;DHT22;40342;52.998;5.862;2023-08-06T03:11:42;14.30;99.90
54431;DHT22;40342;52.998;5.862;2023-08-06T03:14:08;14.30;99.90
54431;DHT22;40342;52.998;5.862;2023-08-06T03:16:34;14.20;99.90
54431;DHT22;40342;52.998;5.862;2023-08-06T03:18:59;14.30;99.90
54431;DHT22;40342;52.998;5.862;2023-08-06T03:21:25;14.30;99.90
54431;DHT22;40342;52.998;5.862;2023-08-06T03:23:51;14.20;99.90
54431;DHT22;40342;52.998;5.862;2023-08-06T03:26:16;14.20;99.90
54431;DHT22;40342;52.998;5.862;2023-08-06T03:28:42;14.30;99.90
54431;DHT22;40342;52.998;5.862;2023-08-06T03:31:07;14.30;99.90
54431;DHT22;40342;52.998;5.862;2023-08-06T03:33:33;14.20;99.90
54431;DHT22;40342;52.998;5.862;2023-08-06T03:35:58;14.20;99.90
54431;DHT22;40342;52.998;5.862;2023-08-06T03:38:24;14.30;99.90
54431;DHT22;40342;52.998;5.862;2023-08-06T03:40:50;14.30;99.90
54431;DHT22;40342;52.998;5.862;2023-08-06T03:43:15;14.20;99.90
54431;DHT22;40342;52.998;5.862;2023-08-06T03:45:41;14.20;99.90
54431;DHT22;40342;52.998;5.862;2023-08-06T03:48:07;14.20;99.90
54431;DHT22;40342;52.998;5.862;2023-08-06T03:50:33;14.20;99.90
54431;DHT22;40342;52.998;5.862;2023-08-06T03:52:59;14.20;99.90
54431;DHT22;40342;52.998;5.862;2023-08-06T03:55:25;14.20;99.90
54431;DHT22;40342;52.998;5.862;2023-08-06T03:57:50;14.20;99.90
54431;DHT22;40342;52.998;5.862;2023-08-06T04:00:16;14.20;99.90
54431;DHT22;40342;52.998;5.862;2023-08-06T04:02:42;14.20;99.90
54431;DHT22;40342;52.998;5.862;2023-08-06T04:05:08;14.20;99.90
54431;DHT22;40342;52.998;5.862;2023-08-06T04:07:33;14.20;99.90
54431;DHT22;40342;52.998;5.862;2023-08-06T04:10:01;14.20;99.90
54431;DHT22;40342;52.998;5.862;2023-08-06T04:12:27;14.20;99.90
54431;DHT22;40342;52.998;5.862;2023-08-06T04:14:54;14.20;99.90
54431;DHT22;40342;52.998;5.862;2023-08-06T04:17:20;14.20;99.90
54431;DHT22;40342;52.998;5.862;2023-08-06T04:19:51;14.20;99.90
54431;DHT22;40342;52.998;5.862;2023-08-06T04:22:17;14.20;99.90
54431;DHT22;40342;52.998;5.862;2023-08-06T04:24:43;14.20;99.90
54431;DHT22;40342;52.998;5.862;2023-08-06T04:27:12;14.20;99.90
54431;DHT22;40342;52.998;5.862;2023-08-06T04:29:39;14.20;99.90
54431;DHT22;40342;52.998;5.862;2023-08-06T04:32:06;14.20;99.90
54431;DHT22;40342;52.998;5.862;2023-08-06T04:34:33;14.20;99.90
54431;DHT22;40342;52.998;5.862;2023-08-06T04:36:59;14.20;99.90
54431;DHT22;40342;52.998;5.862;2023-08-06T04:39:25;14.20;99.90
54431;DHT22;40342;52.998;5.862;2023-08-06T04:41:51;14.20;99.90
54431;DHT22;40342;52.998;5.862;2023-08-06T04:44:16;14.30;99.90
54431;DHT22;40342;52.998;5.862;2023-08-06T04:46:42;14.30;99.90
54431;DHT22;40342;52.998;5.862;2023-08-06T04:49:07;14.30;99.90
54431;DHT22;40342;52.998;5.862;2023-08-06T04:51:33;14.30;99.90
54431;DHT22;40342;52.998;5.862;2023-08-06T04:53:59;14.30;99.90
54431;DHT22;40342;52.998;5.862;2023-08-06T04:56:24;14.20;99.90
54431;DHT22;40342;52.998;5.862;2023-08-06T04:58:50;14.30;99.90
54431;DHT22;40342;52.998;5.862;2023-08-06T05:01:16;14.30;99.90
54431;DHT22;40342;52.998;5.862;2023-08-06T05:03:41;14.30;99.90
54431;DHT22;40342;52.998;5.862;2023-08-06T05:06:07;14.30;99.90
54431;DHT22;40342;52.998;5.862;2023-08-06T05:08:33;14.30;99.90
54431;DHT22;40342;52.998;5.862;2023-08-06T05:10:58;14.30;99.90
54431;DHT22;40342;52.998;5.862;2023-08-06T05:13:24;14.30;99.90
54431;DHT22;40342;52.998;5.862;2023-08-06T05:15:50;14.30;99.90
54431;DHT22;40342;52.998;5.862;2023-08-06T05:18:16;14.30;99.90
54431;DHT22;40342;52.998;5.862;2023-08-06T05:20:42;14.30;99.90
54431;DHT22;40342;52.998;5.862;2023-08-06T05:23:08;14.30;99.90
54431;DHT22;40342;52.998;5.862;2023-08-06T05:25:34;14.30;99.90
54431;DHT22;40342;52.998;5.862;2023-08-06T05:28:01;14.40;99.90
54431;DHT22;40342;52.998;5.862;2023-08-06T05:30:27;14.40;99.90
54431;DHT22;40342;52.998;5.862;2023-08-06T05:32:52;14.40;99.90
54431;DHT22;40342;52.998;5.862;2023-08-06T05:35:18;14.40;99.90
54431;DHT22;40342;52.998;5.862;2023-08-06T05:37:44;14.40;99.90
54431;DHT22;40342;52.998;5.862;2023-08-06T05:40:09;14.40;99.90
54431;DHT22;40342;52.998;5.862;2023-08-06T05:42:35;14.50;99.90
54431;DHT22;40342;52.998;5.862;2023-08-06T05:45:01;14.50;99.90
54431;DHT22;40342;52.998;5.862;2023-08-06T05:47:26;14.50;99.90
54431;DHT22;40342;52.998;5.862;2023-08-06T05:49:52;14.50;99.90
54431;DHT22;40342;52.998;5.862;2023-08-06T05:52:17;14.50;99.90
54431;DHT22;40342;52.998;5.862;2023-08-06T05:54:43;14.60;99.90
54431;DHT22;40342;52.998;5.862;2023-08-06T05:57:08;14.60;99.90
54431;DHT22;40342;52.998;5.862;2023-08-06T05:59:34;14.60;99.90
54431;DHT22;40342;52.998;5.862;2023-08-06T06:01:59;14.60;99.90
54431;DHT22;40342;52.998;5.862;2023-08-06T06:04:25;14.60;99.90
54431;DHT22;40342;52.998;5.862;2023-08-06T06:06:51;14.70;99.90
54431;DHT22;40342;52.998;5.862;2023-08-06T06:09:16;14.70;99.90
54431;DHT22;40342;52.998;5.862;2023-08-06T06:11:42;14.70;99.90
54431;DHT22;40342;52.998;5.862;2023-08-06T06:14:07;14.80;99.90
54431;DHT22;40342;52.998;5.862;2023-08-06T06:16:34;14.80;99.90
54431;DHT22;40342;52.998;5.862;2023-08-06T06:18:59;14.80;99.90
54431;DHT22;40342;52.998;5.862;2023-08-06T06:21:25;14.90;99.90
54431;DHT22;40342;52.998;5.862;2023-08-06T06:23:53;14.90;99.90
54431;DHT22;40342;52.998;5.862;2023-08-06T06:26:18;15.00;99.90
54431;DHT22;40342;52.998;5.862;2023-08-06T06:28:44;15.00;99.90
54431;DHT22;40342;52.998;5.862;2023-08-06T06:31:10;15.00;99.90
54431;DHT22;40342;52.998;5.862;2023-08-06T06:33:36;15.10;99.90
54431;DHT22;40342;52.998;5.862;2023-08-06T06:36:01;15.10;99.90
54431;DHT22;40342;52.998;5.862;2023-08-06T06:38:30;15.10;99.90
54431;DHT22;40342;52.998;5.862;2023-08-06T06:40:58;15.20;99.90
54431;DHT22;40342;52.998;5.862;2023-08-06T06:43:24;15.20;99.90
54431;DHT22;40342;52.998;5.862;2023-08-06T06:45:55;15.20;99.90
54431;DHT22;40342;52.998;5.862;2023-08-06T06:48:21;15.30;99.90
54431;DHT22;40342;52.998;5.862;2023-08-06T06:50:50;15.30;99.90
54431;DHT22;40342;52.998;5.862;2023-08-06T06:53:15;15.40;99.90
54431;DHT22;40342;52.998;5.862;2023-08-06T06:55:41;15.40;99.90
54431;DHT22;40342;52.998;5.862;2023-08-06T06:58:06;15.50;99.90
54431;DHT22;40342;52.998;5.862;2023-08-06T07:00:32;15.50;99.90
54431;DHT22;40342;52.998;5.862;2023-08-06T07:02:57;15.50;99.90
54431;DHT22;40342;52.998;5.862;2023-08-06T07:05:23;15.60;99.90
54431;DHT22;40342;52.998;5.862;2023-08-06T07:07:48;15.60;99.90
54431;DHT22;40342;52.998;5.862;2023-08-06T07:10:14;15.60;99.90
54431;DHT22;40342;52.998;5.862;2023-08-06T07:12:40;15.70;99.90
54431;DHT22;40342;52.998;5.862;2023-08-06T07:15:06;15.70;99.90
54431;DHT22;40342;52.998;5.862;2023-08-06T07:17:31;15.80;99.90
54431;DHT22;40342;52.998;5.862;2023-08-06T07:19:57;15.80;99.90
54431;DHT22;40342;52.998;5.862;2023-08-06T07:22:23;15.80;99.90
54431;DHT22;40342;52.998;5.862;2023-08-06T07:24:48;15.80;99.90
54431;DHT22;40342;52.998;5.862;2023-08-06T07:27:14;15.80;99.90
54431;DHT22;40342;52.998;5.862;2023-08-06T07:29:39;15.90;99.90
54431;DHT22;40342;52.998;5.862;2023-08-06T07:32:07;15.90;99.90
54431;DHT22;40342;52.998;5.862;2023-08-06T07:34:32;15.90;99.90
54431;DHT22;40342;52.998;5.862;2023-08-06T07:36:58;15.90;99.90
54431;DHT22;40342;52.998;5.862;2023-08-06T07:39:24;15.90;99.90
54431;DHT22;40342;52.998;5.862;2023-08-06T07:41:49;16.00;99.90
54431;DHT22;40342;52.998;5.862;2023-08-06T07:44:15;16.00;99.90
54431;DHT22;40342;52.998;5.862;2023-08-06T07:46:41;16.00;99.90
54431;DHT22;40342;52.998;5.862;2023-08-06T07:49:07;16.10;99.90
54431;DHT22;40342;52.998;5.862;2023-08-06T07:51:32;16.10;99.90
54431;DHT22;40342;52.998;5.862;2023-08-06T07:53:58;16.20;99.90
54431;DHT22;40342;52.998;5.862;2023-08-06T07:56:23;16.20;99.90
54431;DHT22;40342;52.998;5.862;2023-08-06T07:58:49;16.20;99.90
54431;DHT22;40342;52.998;5.862;2023-08-06T08:01:15;16.30;99.90
54431;DHT22;40342;52.998;5.862;2023-08-06T08:03:40;16.30;99.90
54431;DHT22;40342;52.998;5.862;2023-08-06T08:06:06;16.30;99.90
54431;DHT22;40342;52.998;5.862;2023-08-06T08:08:31;16.40;99.90
54431;DHT22;40342;52.998;5.862;2023-08-06T08:10:57;16.50;99.90
54431;DHT22;40342;52.998;5.862;2023-08-06T08:13:24;16.50;99.90
54431;DHT22;40342;52.998;5.862;2023-08-06T08:15:50;16.60;99.90
54431;DHT22;40342;52.998;5.862;2023-08-06T08:18:15;16.60;99.90
54431;DHT22;40342;52.998;5.862;2023-08-06T08:20:41;16.70;99.90
54431;DHT22;40342;52.998;5.862;2023-08-06T08:23:07;16.70;99.90
54431;DHT22;40342;52.998;5.862;2023-08-06T08:25:32;16.80;99.90
54431;DHT22;40342;52.998;5.862;2023-08-06T08:27:59;16.80;99.90
54431;DHT22;40342;52.998;5.862;2023-08-06T08:30:25;16.90;99.90
54431;DHT22;40342;52.998;5.862;2023-08-06T08:32:50;16.90;99.90
54431;DHT22;40342;52.998;5.862;2023-08-06T08:35:16;17.00;99.90
54431;DHT22;40342;52.998;5.862;2023-08-06T08:37:42;17.00;99.90
54431;DHT22;40342;52.998;5.862;2023-08-06T08:40:09;17.10;99.90
54431;DHT22;40342;52.998;5.862;2023-08-06T08:42:36;17.00;99.90
54431;DHT22;40342;52.998;5.862;2023-08-06T08:45:03;17.10;99.90
54431;DHT22;40342;52.998;5.862;2023-08-06T08:47:30;17.10;99.90
54431;DHT22;40342;52.998;5.862;2023-08-06T08:49:57;17.10;99.90
54431;DHT22;40342;52.998;5.862;2023-08-06T08:52:23;17.10;99.90
54431;DHT22;40342;52.998;5.862;2023-08-06T08:54:51;17.20;99.90
54431;DHT22;40342;52.998;5.862;2023-08-06T08:57:18;17.20;99.90
54431;DHT22;40342;52.998;5.862;2023-08-06T08:59:45;17.20;99.90
54431;DHT22;40342;52.998;5.862;2023-08-06T09:02:12;17.20;99.90
54431;DHT22;40342;52.998;5.862;2023-08-06T09:04:41;17.30;99.90
54431;DHT22;40342;52.998;5.862;2023-08-06T09:07:08;17.30;99.90
54431;DHT22;40342;52.998;5.862;2023-08-06T09:09:35;17.40;99.90
54431;DHT22;40342;52.998;5.862;2023-08-06T09:12:15;17.40;99.90
54431;DHT22;40342;52.998;5.862;2023-08-06T09:14:40;17.50;99.90
54431;DHT22;40342;52.998;5.862;2023-08-06T09:17:06;17.50;99.90
54431;DHT22;40342;52.998;5.862;2023-08-06T09:19:32;17.60;99.90
54431;DHT22;40342;52.998;5.862;2023-08-06T09:21:58;17.60;99.90
54431;DHT22;40342;52.998;5.862;2023-08-06T09:24:24;17.70;99.90
54431;DHT22;40342;52.998;5.862;2023-08-06T09:26:51;17.70;99.90
54431;DHT22;40342;52.998;5.862;2023-08-06T09:29:17;17.80;99.90
54431;DHT22;40342;52.998;5.862;2023-08-06T09:31:48;17.80;99.90
54431;DHT22;40342;52.998;5.862;2023-08-06T09:34:21;17.90;99.90
54431;DHT22;40342;52.998;5.862;2023-08-06T09:36:51;17.80;99.90
54431;DHT22;40342;52.998;5.862;2023-08-06T09:39:18;17.90;99.90
54431;DHT22;40342;52.998;5.862;2023-08-06T09:41:45;17.90;99.90
54431;DHT22;40342;52.998;5.862;2023-08-06T09:44:19;17.90;99.90
54431;DHT22;40342;52.998;5.862;2023-08-06T09:46:54;18.00;99.90
54431;DHT22;40342;52.998;5.862;2023-08-06T09:49:26;18.00;99.90
54431;DHT22;40342;52.998;5.862;2023-08-06T09:51:53;18.00;99.90
54431;DHT22;40342;52.998;5.862;2023-08-06T09:54:22;18.10;99.90
54431;DHT22;40342;52.998;5.862;2023-08-06T09:56:48;18.00;99.90
54431;DHT22;40342;52.998;5.862;2023-08-06T09:59:14;18.00;99.90
54431;DHT22;40342;52.998;5.862;2023-08-06T10:01:41;18.10;99.90
54431;DHT22;40342;52.998;5.862;2023-08-06T10:04:07;18.10;99.90
54431;DHT22;40342;52.998;5.862;2023-08-06T10:06:34;18.20;99.90
54431;DHT22;40342;52.998;5.862;2023-08-06T10:09:06;18.20;99.90
54431;DHT22;40342;52.998;5.862;2023-08-06T10:11:33;18.30;99.90
54431;DHT22;40342;52.998;5.862;2023-08-06T10:14:06;18.40;99.90
54431;DHT22;40342;52.998;5.862;2023-08-06T10:16:34;18.40;99.90
54431;DHT22;40342;52.998;5.862;2023-08-06T10:19:01;18.50;99.90
54431;DHT22;40342;52.998;5.862;2023-08-06T10:21:28;18.50;99.90
54431;DHT22;40342;52.998;5.862;2023-08-06T10:23:56;18.70;99.90
54431;DHT22;40342;52.998;5.862;2023-08-06T10:26:28;18.80;99.90
54431;DHT22;40342;52.998;5.862;2023-08-06T10:28:54;18.80;99.90
54431;DHT22;40342;52.998;5.862;2023-08-06T10:31:43;18.90;99.90
54431;DHT22;40342;52.998;5.862;2023-08-06T10:34:06;18.90;99.90
54431;DHT22;40342;52.998;5.862;2023-08-06T10:36:32;19.00;99.90
54431;DHT22;40342;52.998;5.862;2023-08-06T10:38:58;19.10;99.90
54431;DHT22;40342;52.998;5.862;2023-08-06T10:41:29;19.30;99.90
54431;DHT22;40342;52.998;5.862;2023-08-06T10:44:08;19.50;99.90
54431;DHT22;40342;52.998;5.862;2023-08-06T10:46:34;19.70;99.90
54431;DHT22;40342;52.998;5.862;2023-08-06T10:49:00;19.90;99.90
54431;DHT22;40342;52.998;5.862;2023-08-06T10:51:26;20.10;99.90
54431;DHT22;40342;52.998;5.862;2023-08-06T10:53:52;20.10;99.90
54431;DHT22;40342;52.998;5.862;2023-08-06T10:56:20;20.10;99.90
54431;DHT22;40342;52.998;5.862;2023-08-06T10:58:50;20.10;99.90
54431;DHT22;40342;52.998;5.862;2023-08-06T11:01:17;20.10;99.90
54431;DHT22;40342;52.998;5.862;2023-08-06T11:03:44;20.00;99.90
54431;DHT22;40342;52.998;5.862;2023-08-06T11:06:10;20.00;99.90
54431;DHT22;40342;52.998;5.862;2023-08-06T11:08:47;19.90;99.90
54431;DHT22;40342;52.998;5.862;2023-08-06T11:11:14;19.90;99.90
54431;DHT22;40342;52.998;5.862;2023-08-06T11:13:44;19.90;99.90
54431;DHT22;40342;52.998;5.862;2023-08-06T11:16:16;19.90;99.90
54431;DHT22;40342;52.998;5.862;2023-08-06T11:18:42;19.90;99.90
54431;DHT22;40342;52.998;5.862;2023-08-06T11:21:08;19.80;99.90
54431;DHT22;40342;52.998;5.862;2023-08-06T11:23:35;19.80;99.90
54431;DHT22;40342;52.998;5.862;2023-08-06T11:26:01;19.70;99.90
54431;DHT22;40342;52.998;5.862;2023-08-06T11:28:27;19.70;99.90
54431;DHT22;40342;52.998;5.862;2023-08-06T11:30:53;19.60;99.90
54431;DHT22;40342;52.998;5.862;2023-08-06T11:33:27;19.60;99.90
54431;DHT22;40342;52.998;5.862;2023-08-06T11:35:55;19.60;99.90
54431;DHT22;40342;52.998;5.862;2023-08-06T11:38:21;19.60;99.90
54431;DHT22;40342;52.998;5.862;2023-08-06T11:40:50;19.50;99.90
54431;DHT22;40342;52.998;5.862;2023-08-06T11:43:18;19.50;99.90
54431;DHT22;40342;52.998;5.862;2023-08-06T11:45:44;19.50;99.90
54431;DHT22;40342;52.998;5.862;2023-08-06T11:48:09;19.50;99.90
54431;DHT22;40342;52.998;5.862;2023-08-06T11:50:38;19.50;99.90
54431;DHT22;40342;52.998;5.862;2023-08-06T11:53:04;19.50;99.90
54431;DHT22;40342;52.998;5.862;2023-08-06T11:55:30;19.50;99.90
54431;DHT22;40342;52.998;5.862;2023-08-06T11:57:56;19.50;99.90
54431;DHT22;40342;52.998;5.862;2023-08-06T12:00:26;19.60;99.90
54431;DHT22;40342;52.998;5.862;2023-08-06T12:02:52;19.70;99.90
54431;DHT22;40342;52.998;5.862;2023-08-06T12:05:37;19.90;99.90
54431;DHT22;40342;52.998;5.862;2023-08-06T12:08:04;20.20;99.90
54431;DHT22;40342;52.998;5.862;2023-08-06T12:10:30;20.40;99.90
54431;DHT22;40342;52.998;5.862;2023-08-06T12:12:56;20.60;99.90
54431;DHT22;40342;52.998;5.862;2023-08-06T12:15:22;20.80;99.90
54431;DHT22;40342;52.998;5.862;2023-08-06T12:17:49;20.90;99.90
54431;DHT22;40342;52.998;5.862;2023-08-06T12:20:15;20.90;99.90
54431;DHT22;40342;52.998;5.862;2023-08-06T12:22:40;20.90;99.90
54431;DHT22;40342;52.998;5.862;2023-08-06T12:25:08;20.80;99.90
54431;DHT22;40342;52.998;5.862;2023-08-06T12:27:44;20.70;99.90
54431;DHT22;40342;52.998;5.862;2023-08-06T12:30:10;20.60;99.90
54431;DHT22;40342;52.998;5.862;2023-08-06T12:32:38;20.50;99.90
54431;DHT22;40342;52.998;5.862;2023-08-06T12:35:04;20.40;99.90
54431;DHT22;40342;52.998;5.862;2023-08-06T12:37:30;20.40;99.90
54431;DHT22;40342;52.998;5.862;2023-08-06T12:39:56;20.30;99.90
54431;DHT22;40342;52.998;5.862;2023-08-06T12:42:21;20.20;99.90
54431;DHT22;40342;52.998;5.862;2023-08-06T12:44:50;20.20;99.90
54431;DHT22;40342;52.998;5.862;2023-08-06T12:47:16;20.20;99.90
54431;DHT22;40342;52.998;5.862;2023-08-06T12:49:42;20.10;99.90
54431;DHT22;40342;52.998;5.862;2023-08-06T12:52:07;20.10;99.90
54431;DHT22;40342;52.998;5.862;2023-08-06T12:54:34;20.00;99.90
54431;DHT22;40342;52.998;5.862;2023-08-06T12:57:04;19.90;99.90
54431;DHT22;40342;52.998;5.862;2023-08-06T12:59:30;19.90;99.90
54431;DHT22;40342;52.998;5.862;2023-08-06T13:01:55;19.80;99.90
54431;DHT22;40342;52.998;5.862;2023-08-06T13:04:21;19.70;99.90
54431;DHT22;40342;52.998;5.862;2023-08-06T13:06:47;19.70;99.90
54431;DHT22;40342;52.998;5.862;2023-08-06T13:09:13;19.60;99.90
54431;DHT22;40342;52.998;5.862;2023-08-06T13:11:39;19.50;99.90
54431;DHT22;40342;52.998;5.862;2023-08-06T13:14:07;19.50;99.90
54431;DHT22;40342;52.998;5.862;2023-08-06T13:16:34;19.40;99.90
54431;DHT22;40342;52.998;5.862;2023-08-06T13:19:00;19.30;99.90
54431;DHT22;40342;52.998;5.862;2023-08-06T13:21:33;19.30;99.90
54431;DHT22;40342;52.998;5.862;2023-08-06T13:24:00;19.20;99.90
54431;DHT22;40342;52.998;5.862;2023-08-06T13:26:28;19.20;99.90
54431;DHT22;40342;52.998;5.862;2023-08-06T13:28:53;19.10;99.90
54431;DHT22;40342;52.998;5.862;2023-08-06T13:31:19;19.10;99.90
54431;DHT22;40342;52.998;5.862;2023-08-06T13:33:44;19.00;99.90
54431;DHT22;40342;52.998;5.862;2023-08-06T13:36:10;19.00;99.90
54431;DHT22;40342;52.998;5.862;2023-08-06T13:38:36;18.90;99.90
54431;DHT22;40342;52.998;5.862;2023-08-06T13:41:01;19.00;99.90
54431;DHT22;40342;52.998;5.862;2023-08-06T13:43:27;18.90;99.90
54431;DHT22;40342;52.998;5.862;2023-08-06T13:45:53;18.90;99.90
54431;DHT22;40342;52.998;5.862;2023-08-06T13:48:19;18.90;99.90
54431;DHT22;40342;52.998;5.862;2023-08-06T13:50:44;18.90;99.90
54431;DHT22;40342;52.998;5.862;2023-08-06T13:53:10;18.90;99.90
54431;DHT22;40342;52.998;5.862;2023-08-06T13:55:36;19.00;99.90
54431;DHT22;40342;52.998;5.862;2023-08-06T13:58:01;18.90;99.90
54431;DHT22;40342;52.998;5.862;2023-08-06T14:00:27;19.00;99.90
54431;DHT22;40342;52.998;5.862;2023-08-06T14:02:52;18.90;99.90
54431;DHT22;40342;52.998;5.862;2023-08-06T14:05:18;18.80;99.90
54431;DHT22;40342;52.998;5.862;2023-08-06T14:07:43;18.80;99.90
54431;DHT22;40342;52.998;5.862;2023-08-06T14:10:09;18.80;99.90
54431;DHT22;40342;52.998;5.862;2023-08-06T14:12:35;18.70;99.90
54431;DHT22;40342;52.998;5.862;2023-08-06T14:15:01;18.60;99.90
54431;DHT22;40342;52.998;5.862;2023-08-06T14:17:28;18.50;99.90
54431;DHT22;40342;52.998;5.862;2023-08-06T14:19:53;18.40;99.90
54431;DHT22;40342;52.998;5.862;2023-08-06T14:22:19;18.20;99.90
54431;DHT22;40342;52.998;5.862;2023-08-06T14:24:45;18.20;99.90
54431;DHT22;40342;52.998;5.862;2023-08-06T14:27:12;18.10;99.90
54431;DHT22;40342;52.998;5.862;2023-08-06T14:29:38;18.00;99.90
54431;DHT22;40342;52.998;5.862;2023-08-06T14:32:04;18.00;99.90
54431;DHT22;40342;52.998;5.862;2023-08-06T14:34:29;17.90;99.90
54431;DHT22;40342;52.998;5.862;2023-08-06T14:36:55;17.90;99.90
54431;DHT22;40342;52.998;5.862;2023-08-06T14:39:20;17.80;99.90
54431;DHT22;40342;52.998;5.862;2023-08-06T14:41:46;17.70;99.90
54431;DHT22;40342;52.998;5.862;2023-08-06T14:44:12;17.70;99.90
54431;DHT22;40342;52.998;5.862;2023-08-06T14:46:38;17.70;99.90
54431;DHT22;40342;52.998;5.862;2023-08-06T14:49:03;17.70;99.90
54431;DHT22;40342;52.998;5.862;2023-08-06T14:51:29;17.70;99.90
54431;DHT22;40342;52.998;5.862;2023-08-06T14:53:54;17.60;99.90
54431;DHT22;40342;52.998;5.862;2023-08-06T14:56:20;17.70;99.90
54431;DHT22;40342;52.998;5.862;2023-08-06T14:58:46;17.70;99.90
54431;DHT22;40342;52.998;5.862;2023-08-06T15:01:12;17.60;99.90
54431;DHT22;40342;52.998;5.862;2023-08-06T15:03:37;17.70;99.90
54431;DHT22;40342;52.998;5.862;2023-08-06T15:06:03;17.70;99.90
54431;DHT22;40342;52.998;5.862;2023-08-06T15:08:28;17.70;99.90
54431;DHT22;40342;52.998;5.862;2023-08-06T15:10:54;17.60;99.90
54431;DHT22;40342;52.998;5.862;2023-08-06T15:13:20;17.70;99.90
54431;DHT22;40342;52.998;5.862;2023-08-06T15:15:51;17.70;99.90
54431;DHT22;40342;52.998;5.862;2023-08-06T15:18:17;17.80;99.90
54431;DHT22;40342;52.998;5.862;2023-08-06T15:20:44;17.90;99.90
54431;DHT22;40342;52.998;5.862;2023-08-06T15:23:10;17.90;99.90
54431;DHT22;40342;52.998;5.862;2023-08-06T15:25:35;18.00;99.90
54431;DHT22;40342;52.998;5.862;2023-08-06T15:28:01;18.00;99.90
54431;DHT22;40342;52.998;5.862;2023-08-06T15:30:27;17.90;99.90
54431;DHT22;40342;52.998;5.862;2023-08-06T15:32:52;17.90;99.90
54431;DHT22;40342;52.998;5.862;2023-08-06T15:35:18;17.90;99.90